Terminal Aerodrome Forecast
Issued by NWS

Current Version | Previous Version | Text Only | Print | Product List | Glossary Off
Versions: 1 2 3 4 5 6 7 8 9 10 11 12 13 14 15 16 17

000
FTUS41 KILN 210500
TAFLCK
TAF
KLCK 210520Z 2106/2206 00000KT P6SM SCT200
     FM211400 21007KT P6SM FEW050 BKN150
     FM211900 23011KT P6SM SCT060 BKN150
     FM220000 23009KT P6SM OVC120=

USA.gov is the U.S. government's official web portal to all federal, state and local government web resources and services.